Siping, China
Current Conditions -  °F | °C
As of 10:00 PM on Saturday 27 Dec 2014 (Local Time) from ZYCC Reporting Station
Scattered Clouds Scattered Clouds  
Wind Chill: 13°   Ceiling: Unl
Heat Index: 23°   Visibility: 4mi
Dew Point: 12°   Wind: 9mph
Humidity: 63%   Direction: 180°S
Pressure: 30.15"   Gusts: NA
Location:  43.17°N, 124.33°E
Report Text: ZYCC 271400Z 18004MPS 6000 SCT023 M05/M11 Q1021 NOSIG
Loading
Personal Weather Stations






























Interactive Weather Map New forecast layout! Learn more

10-Day Weather Forecast

Advertisements
Track Severe Weather on mobile